createdAt,value
2019-05-09T00:01:24.396Z,99160.41
2019-05-09T00:03:54.348Z,99168.34
2019-05-09T00:06:24.103Z,99166.02
2019-05-09T00:08:53.457Z,99174.80
2019-05-09T00:11:24.633Z,99164.39
2019-05-09T00:13:53.952Z,99170.67
2019-05-09T00:16:23.698Z,99175.12
2019-05-09T00:18:54.124Z,99178.91
2019-05-09T00:21:25.224Z,99183.89
2019-05-09T00:23:54.292Z,99184.05
2019-05-09T00:26:23.602Z,99176.61
2019-05-09T00:29:03.862Z,99184.55
2019-05-09T00:31:51.214Z,99180.08
2019-05-09T00:34:23.415Z,99183.69
2019-05-09T00:36:53.998Z,99183.36
2019-05-09T00:39:23.705Z,99182.69
2019-05-09T00:41:53.856Z,99186.50
2019-05-09T00:44:27.456Z,99179.89
2019-05-09T00:46:58.346Z,99182.36
2019-05-09T00:49:28.789Z,99177.58
2019-05-09T00:51:57.836Z,99173.95
2019-05-09T00:54:26.854Z,99179.70
2019-05-09T00:56:56.067Z,99176.40
2019-05-09T00:59:25.361Z,99171.45
2019-05-09T01:01:54.512Z,99170.95
2019-05-09T01:04:24.207Z,99163.02
2019-05-09T01:06:54.121Z,99169.63
2019-05-09T01:09:24.301Z,99165.83
2019-05-09T01:11:53.633Z,99167.33
2019-05-09T01:14:23.459Z,99173.27
2019-05-09T01:16:53.463Z,99167.16
2019-05-09T01:19:23.368Z,99171.31
2019-05-09T01:21:54.241Z,99170.81
2019-05-09T01:24:23.385Z,99169.15
2019-05-09T01:26:54.160Z,99170.31
2019-05-09T01:29:23.222Z,99168.98
2019-05-09T01:31:54.164Z,99163.39
2019-05-09T01:34:25.065Z,99164.88
2019-05-09T01:37:07.394Z,99161.59
2019-05-09T01:39:37.263Z,99165.19
2019-05-09T01:42:06.917Z,99161.89
2019-05-09T01:44:36.326Z,99161.39
2019-05-09T01:47:05.503Z,99155.45
2019-05-09T01:49:34.513Z,99162.73
2019-05-09T01:52:03.822Z,99159.41
2019-05-09T01:54:34.574Z,99156.61
2019-05-09T01:57:03.684Z,99153.80
2019-05-09T01:59:33.921Z,99163.86
2019-05-09T02:02:08.085Z,99155.79
2019-05-09T02:04:34.393Z,99154.80
2019-05-09T02:07:04.451Z,99154.47
2019-05-09T02:09:34.410Z,99153.33
2019-05-09T02:12:04.344Z,99153.64
2019-05-09T02:14:38.193Z,99145.39
2019-05-09T02:17:13.824Z,99140.92
2019-05-09T02:19:44.093Z,99141.41
2019-05-09T02:22:31.166Z,99146.53
2019-05-09T02:25:00.375Z,99133.81
2019-05-09T02:27:29.670Z,99138.46
2019-05-09T02:29:58.725Z,99134.65
2019-05-09T02:32:27.740Z,99139.77
2019-05-09T02:34:56.786Z,99142.73
2019-05-09T02:37:28.623Z,99139.42
2019-05-09T02:39:59.139Z,99139.42
2019-05-09T02:42:28.248Z,99153.57
2019-05-09T02:44:59.521Z,99152.41
2019-05-09T02:47:28.949Z,99144.66
2019-05-09T02:49:59.097Z,99147.14
2019-05-09T02:52:28.885Z,99153.09
2019-05-09T02:54:58.530Z,99146.31
2019-05-09T02:57:29.299Z,99135.80
2019-05-09T03:00:03.340Z,99131.34
2019-05-09T03:02:48.997Z,99129.20
2019-05-09T03:05:19.568Z,99133.14
2019-05-09T03:07:49.309Z,99123.75
2019-05-09T03:10:22.585Z,99116.81
2019-05-09T03:12:51.759Z,99115.33
2019-05-09T03:15:21.515Z,99112.53
2019-05-09T03:17:50.959Z,99108.89
2019-05-09T03:20:28.989Z,99114.16
2019-05-09T03:22:58.559Z,99119.96
2019-05-09T03:25:28.907Z,99113.52
2019-05-09T03:28:12.057Z,99107.55
2019-05-09T03:30:50.089Z,99110.02
2019-05-09T03:33:20.311Z,99102.11
2019-05-09T03:35:49.660Z,99105.74
2019-05-09T03:38:18.936Z,99105.74
2019-05-09T03:40:47.960Z,99105.93
2019-05-09T03:43:18.347Z,99101.28
2019-05-09T03:45:49.365Z,99103.93
2019-05-09T03:48:37.435Z,99094.20
2019-05-09T03:51:08.092Z,99092.05
2019-05-09T03:53:38.038Z,99092.73
2019-05-09T03:56:08.941Z,99094.21
2019-05-09T03:58:38.579Z,99090.39
2019-05-09T04:01:10.676Z,99091.41
2019-05-09T04:03:38.905Z,99093.05
2019-05-09T04:06:08.437Z,99093.54
2019-05-09T04:08:37.933Z,99091.56
2019-05-09T04:11:08.644Z,99086.61
2019-05-09T04:13:39.341Z,99092.55
2019-05-09T04:16:08.424Z,99076.86
2019-05-09T04:18:37.687Z,99088.59
2019-05-09T04:21:08.487Z,99086.27
2019-05-09T04:23:38.163Z,99095.84
2019-05-09T04:26:08.833Z,99097.02
2019-05-09T04:28:39.851Z,99105.74
2019-05-09T04:31:08.588Z,99094.70
2019-05-09T04:33:38.316Z,99103.61
2019-05-09T04:36:08.465Z,99105.77
2019-05-09T04:38:39.908Z,99094.36
2019-05-09T04:41:08.676Z,99094.36
2019-05-09T04:43:39.752Z,99099.63
2019-05-09T04:46:12.962Z,99097.30
2019-05-09T04:48:40.467Z,99091.48
2019-05-09T04:51:09.584Z,99091.48
2019-05-09T04:53:39.921Z,99099.53
2019-05-09T04:56:10.867Z,99101.17
2019-05-09T04:58:39.947Z,99101.61
2019-05-09T05:01:19.782Z,99094.73
2019-05-09T05:03:50.930Z,99093.87
2019-05-09T05:06:20.769Z,99094.58
2019-05-09T05:08:50.046Z,99097.67
2019-05-09T05:11:19.106Z,99097.56
2019-05-09T05:13:48.278Z,99103.72
2019-05-09T05:16:18.469Z,99098.56
2019-05-09T05:18:47.905Z,99099.00
2019-05-09T05:21:19.971Z,99104.30
2019-05-09T05:23:49.319Z,99101.94
2019-05-09T05:26:20.002Z,99103.55
2019-05-09T05:28:49.299Z,99109.32
2019-05-09T05:31:18.610Z,99108.37
2019-05-09T05:33:57.621Z,99112.37
2019-05-09T05:36:27.948Z,99119.55
2019-05-09T05:38:58.493Z,99117.28
2019-05-09T05:41:28.568Z,99120.19
2019-05-09T05:43:58.157Z,99121.70
2019-05-09T05:46:50.544Z,99121.12
2019-05-09T05:49:18.622Z,99122.45
2019-05-09T05:51:49.554Z,99124.05
2019-05-09T05:54:21.009Z,99126.84
2019-05-09T05:56:50.420Z,99126.17
2019-05-09T05:59:19.513Z,99124.44
2019-05-09T06:01:49.299Z,99122.31
2019-05-09T06:04:18.790Z,99119.98
2019-05-09T06:06:48.366Z,99107.59
2019-05-09T06:09:18.893Z,99112.21
2019-05-09T06:11:48.746Z,99100.59
2019-05-09T06:14:18.585Z,99105.05
2019-05-09T06:16:48.749Z,99099.35
2019-05-09T06:19:18.345Z,99100.01
2019-05-09T06:21:51.704Z,99101.44
2019-05-09T06:24:18.859Z,99102.02
2019-05-09T06:26:48.110Z,99109.20
2019-05-09T06:29:17.981Z,99102.48
2019-05-09T06:31:48.401Z,99102.63
2019-05-09T06:34:18.793Z,99100.49
2019-05-09T06:36:49.090Z,99100.58
2019-05-09T06:39:18.311Z,99103.88
2019-05-09T06:41:48.405Z,99107.89
2019-05-09T06:44:20.648Z,99102.77
2019-05-09T06:46:54.483Z,99100.64
2019-05-09T06:49:29.291Z,99111.25
2019-05-09T06:51:57.910Z,99108.83
2019-05-09T06:54:27.876Z,99105.24
2019-05-09T06:56:58.510Z,99106.66
2019-05-09T06:59:28.449Z,99094.42
2019-05-09T07:01:59.403Z,99095.38
2019-05-09T07:04:33.330Z,99100.09
2019-05-09T07:07:04.089Z,99097.16
2019-05-09T07:09:34.818Z,99099.61
2019-05-09T07:12:03.917Z,99093.84
2019-05-09T07:14:39.139Z,99091.10
2019-05-09T07:17:07.960Z,99096.46
2019-05-09T07:19:38.244Z,99096.52
2019-05-09T07:22:27.840Z,99097.44
2019-05-09T07:25:10.909Z,99095.13
2019-05-09T07:27:42.374Z,99082.69
2019-05-09T07:30:13.789Z,99082.76
2019-05-09T07:32:44.866Z,99085.23
2019-05-09T07:35:14.002Z,99083.95
2019-05-09T07:37:43.510Z,99087.83
2019-05-09T07:40:12.916Z,99079.00
2019-05-09T07:42:41.943Z,99092.03
2019-05-09T07:45:11.061Z,99081.93
2019-05-09T07:47:40.175Z,99082.98
2019-05-09T07:50:09.866Z,99082.56
2019-05-09T07:52:39.269Z,99080.22
2019-05-09T07:55:09.071Z,99086.58
2019-05-09T07:57:46.094Z,99080.24
2019-05-09T08:00:11.324Z,99073.28
2019-05-09T08:02:40.402Z,99069.05
2019-05-09T08:05:11.204Z,99065.30
2019-05-09T08:07:40.323Z,99063.39
2019-05-09T08:10:11.281Z,99068.42
2019-05-09T08:12:40.705Z,99063.87
2019-05-09T08:15:16.619Z,99056.92
2019-05-09T08:17:40.882Z,99059.61
2019-05-09T08:20:10.068Z,99059.02
2019-05-09T08:22:42.083Z,99057.26
2019-05-09T08:25:09.918Z,99051.68
2019-05-09T08:27:38.953Z,99047.20
2019-05-09T08:30:08.533Z,99034.80
2019-05-09T08:32:38.052Z,99036.76
2019-05-09T08:35:08.473Z,99041.73
2019-05-09T08:37:39.089Z,99047.28
2019-05-09T08:40:08.824Z,99033.45
2019-05-09T08:42:38.098Z,99032.84
2019-05-09T08:45:17.401Z,99032.27
2019-05-09T08:47:38.614Z,99038.47
2019-05-09T08:50:18.906Z,99043.08
2019-05-09T08:52:48.262Z,99040.77
2019-05-09T08:55:17.723Z,99034.28
2019-05-09T08:57:48.187Z,99041.05
2019-05-09T09:00:18.933Z,99045.12
2019-05-09T09:02:48.411Z,99041.97
2019-05-09T09:05:18.659Z,99040.52
2019-05-09T09:07:49.376Z,99043.61
2019-05-09T09:10:20.549Z,99037.29
2019-05-09T09:12:50.047Z,99036.25
2019-05-09T09:15:19.355Z,99031.00
2019-05-09T09:17:49.224Z,99034.39
2019-05-09T09:20:19.032Z,99042.53
2019-05-09T09:22:48.596Z,99039.90
2019-05-09T09:25:18.554Z,98988.56
2019-05-09T09:27:50.970Z,99041.27
2019-05-09T09:30:24.602Z,99046.08
2019-05-09T09:32:50.329Z,99041.61
2019-05-09T09:35:19.390Z,99046.77
2019-05-09T09:37:52.150Z,99051.13
2019-05-09T09:40:19.633Z,99045.05
2019-05-09T09:42:49.246Z,99045.81
2019-05-09T09:45:18.592Z,99040.16
2019-05-09T09:47:48.454Z,99046.22
2019-05-09T09:50:17.935Z,99043.44
2019-05-09T09:52:49.148Z,99032.97
2019-05-09T09:55:18.591Z,99033.56
2019-05-09T09:57:48.561Z,99039.18
2019-05-09T10:00:53.787Z,99036.83
2019-05-09T10:03:23.680Z,99038.72
2019-05-09T10:05:52.695Z,99030.45
2019-05-09T10:08:21.726Z,99026.11
2019-05-09T10:10:51.212Z,99022.12
2019-05-09T10:13:20.275Z,99020.72
2019-05-09T10:15:51.074Z,99027.37
2019-05-09T10:18:21.999Z,99027.48
2019-05-09T10:21:10.885Z,99027.65
2019-05-09T10:23:39.980Z,99030.64
2019-05-09T10:26:09.170Z,99032.78
2019-05-09T10:28:38.284Z,99027.25
2019-05-09T10:31:08.183Z,99027.91
2019-05-09T10:33:37.716Z,99018.80
2019-05-09T10:36:08.475Z,99021.33
2019-05-09T10:38:38.673Z,99019.41
2019-05-09T10:41:11.195Z,99021.73
2019-05-09T10:43:43.200Z,99022.98
2019-05-09T10:46:33.618Z,99018.41
2019-05-09T10:49:01.520Z,99025.06
2019-05-09T10:51:30.827Z,99015.17
2019-05-09T10:53:59.848Z,99016.66
2019-05-09T10:56:29.516Z,99013.48
2019-05-09T10:58:58.798Z,99022.09
2019-05-09T11:01:29.698Z,99020.36
2019-05-09T11:03:59.278Z,99012.75
2019-05-09T11:06:29.152Z,99016.13
2019-05-09T11:08:58.913Z,99013.99
2019-05-09T11:11:28.591Z,99016.75
2019-05-09T11:13:58.895Z,99015.35
2019-05-09T11:16:42.007Z,99016.69
2019-05-09T11:18:58.883Z,99004.52
2019-05-09T11:21:29.010Z,99010.58
2019-05-09T11:23:58.886Z,99010.52
2019-05-09T11:26:28.769Z,99019.16
2019-05-09T11:28:59.075Z,99016.28
2019-05-09T11:31:29.563Z,99012.31
2019-05-09T11:33:59.564Z,99016.70
2019-05-09T11:36:28.709Z,99013.65
2019-05-09T11:39:00.623Z,99020.71
2019-05-09T11:41:30.347Z,99026.03
2019-05-09T11:43:59.998Z,99022.30
2019-05-09T11:46:29.164Z,99026.14
2019-05-09T11:48:59.486Z,99025.22
2019-05-09T11:51:29.466Z,99029.12
2019-05-09T11:53:58.838Z,99023.35
2019-05-09T11:56:28.191Z,99030.56
2019-05-09T11:58:58.050Z,99025.27
2019-05-09T12:01:29.238Z,99031.02
2019-05-09T12:03:58.002Z,99036.45
2019-05-09T12:06:28.832Z,99043.29
2019-05-09T12:08:59.035Z,99039.02
2019-05-09T12:11:29.121Z,99038.36
2019-05-09T12:13:58.441Z,99041.69
2019-05-09T12:16:28.094Z,99046.63
2019-05-09T12:18:58.503Z,99048.53
2019-05-09T12:21:29.835Z,99048.53
2019-05-09T12:23:59.081Z,99050.89
2019-05-09T12:26:29.234Z,99057.25
2019-05-09T12:28:59.129Z,99051.84
2019-05-09T12:31:29.125Z,99052.34
2019-05-09T12:33:59.107Z,99060.26
2019-05-09T12:36:29.042Z,99057.22
2019-05-09T12:38:59.078Z,99062.09
2019-05-09T12:41:31.710Z,99056.59
2019-05-09T12:43:59.851Z,99063.83
2019-05-09T12:46:29.132Z,99062.62
2019-05-09T12:48:59.158Z,99066.27
2019-05-09T12:51:28.789Z,99068.01
2019-05-09T12:53:58.188Z,99073.23
2019-05-09T12:56:28.540Z,99074.47
2019-05-09T12:58:58.261Z,99081.77
2019-05-09T13:01:27.403Z,99082.31
2019-05-09T13:03:58.311Z,99082.22
2019-05-09T13:06:29.243Z,99082.89
2019-05-09T13:08:58.814Z,99084.64
2019-05-09T13:11:28.277Z,99085.67
2019-05-09T13:13:57.481Z,99096.45
2019-05-09T13:16:44.361Z,99091.91
2019-05-09T13:19:07.190Z,99100.74
2019-05-09T13:21:38.938Z,99094.88
2019-05-09T13:24:08.522Z,99110.64
2019-05-09T13:26:38.516Z,99105.59
2019-05-09T13:29:08.419Z,99105.98
2019-05-09T13:31:39.199Z,99099.72
2019-05-09T13:34:08.638Z,99101.03
2019-05-09T13:36:37.737Z,99105.59
2019-05-09T13:39:10.352Z,99109.70
2019-05-09T13:41:40.198Z,99117.62
2019-05-09T13:44:13.610Z,99117.20
2019-05-09T13:46:40.837Z,99126.38
2019-05-09T13:49:14.297Z,99125.79
2019-05-09T13:51:48.821Z,99126.34
2019-05-09T13:54:12.713Z,99120.34
2019-05-09T13:56:41.762Z,99130.12
2019-05-09T13:59:11.268Z,99134.50
2019-05-09T14:01:40.369Z,99135.17
2019-05-09T14:04:09.414Z,99141.46
2019-05-09T14:06:39.048Z,99141.58
2019-05-09T14:09:10.713Z,99146.42
2019-05-09T14:11:40.155Z,99147.15
2019-05-09T14:14:09.215Z,99152.37
2019-05-09T14:16:39.070Z,99162.00
2019-05-09T14:19:29.823Z,99163.30
2019-05-09T14:21:43.264Z,99159.95
2019-05-09T14:24:18.212Z,99168.89
2019-05-09T14:26:47.850Z,99178.05
2019-05-09T14:29:20.347Z,99179.11
2019-05-09T14:31:47.314Z,99182.84
2019-05-09T14:34:19.371Z,99186.84
2019-05-09T14:36:49.540Z,99193.70
2019-05-09T14:39:18.725Z,99197.41
2019-05-09T14:41:47.837Z,99195.08
2019-05-09T14:44:18.186Z,99205.57
2019-05-09T14:46:48.225Z,99176.67
2019-05-09T14:49:19.721Z,99220.92
2019-05-09T14:51:50.063Z,99234.61
2019-05-09T14:54:19.638Z,99229.62
2019-05-09T14:56:49.086Z,99243.08
2019-05-09T14:59:18.819Z,99246.59
2019-05-09T15:01:49.998Z,99211.98
2019-05-09T15:04:19.253Z,99245.66
2019-05-09T15:06:49.843Z,99252.58
2019-05-09T15:09:19.199Z,99260.69
2019-05-09T15:11:48.638Z,99260.52
2019-05-09T15:14:18.371Z,99256.83
2019-05-09T15:16:48.540Z,99261.25
2019-05-09T15:19:18.670Z,99261.10
2019-05-09T15:21:48.834Z,99258.88
2019-05-09T15:24:19.618Z,99268.67
2019-05-09T15:26:48.861Z,99267.80
2019-05-09T15:29:17.956Z,99273.45
2019-05-09T15:31:53.166Z,99269.48
2019-05-09T15:34:18.656Z,99271.44
2019-05-09T15:36:48.513Z,99271.34
2019-05-09T15:39:18.489Z,99263.80
2019-05-09T15:41:48.076Z,99261.39
2019-05-09T15:44:18.651Z,99255.49
2019-05-09T15:46:50.418Z,99259.73
2019-05-09T15:49:19.437Z,99249.73
2019-05-09T15:51:48.949Z,99246.42
2019-05-09T15:54:18.146Z,99241.76
2019-05-09T15:56:48.361Z,99249.13
2019-05-09T15:59:18.393Z,99259.63
2019-05-09T16:01:49.164Z,99268.44
2019-05-09T16:04:19.416Z,99272.69
2019-05-09T16:06:50.690Z,99274.94
2019-05-09T16:09:19.271Z,99272.66
2019-05-09T16:11:48.588Z,99277.25
2019-05-09T16:14:18.508Z,99277.36
2019-05-09T16:16:48.182Z,99284.86
2019-05-09T16:19:17.287Z,99284.97
2019-05-09T16:21:47.736Z,99279.67
2019-05-09T16:24:18.874Z,99284.13
2019-05-09T16:26:48.785Z,99284.81
2019-05-09T16:29:18.442Z,99277.58
2019-05-09T16:31:48.209Z,99272.34
2019-05-09T16:34:17.907Z,99271.20
2019-05-09T16:36:48.078Z,99276.63
2019-05-09T16:39:18.192Z,99283.64
2019-05-09T16:41:48.276Z,99280.27
2019-05-09T16:44:18.547Z,99285.20
2019-05-09T16:46:48.770Z,99289.48
2019-05-09T16:49:19.829Z,99294.09
2019-05-09T16:51:48.952Z,99298.82
2019-05-09T16:54:18.280Z,99303.70
2019-05-09T16:56:47.973Z,99311.83
2019-05-09T16:59:18.123Z,99309.89
2019-05-09T17:01:50.256Z,99316.12
2019-05-09T17:04:19.192Z,99319.11
2019-05-09T17:06:49.757Z,99322.77
2019-05-09T17:09:19.429Z,99325.72
2019-05-09T17:11:48.486Z,99315.02
2019-05-09T17:14:19.305Z,99322.15
2019-05-09T17:16:52.112Z,99322.32
2019-05-09T17:19:19.635Z,99329.13
2019-05-09T17:21:53.310Z,99323.48
2019-05-09T17:24:23.656Z,99325.00
2019-05-09T17:26:52.965Z,99328.22
2019-05-09T17:29:22.095Z,99326.80
2019-05-09T17:31:52.044Z,99327.02
2019-05-09T17:34:21.084Z,99332.09
2019-05-09T17:36:50.348Z,99340.13
2019-05-09T17:39:19.455Z,99344.80
2019-05-09T17:41:48.717Z,99348.80
2019-05-09T17:44:18.605Z,99344.16
2019-05-09T17:46:48.154Z,99338.02
2019-05-09T17:49:17.659Z,99340.98
2019-05-09T17:51:48.201Z,99333.70
2019-05-09T17:54:18.357Z,99339.73
2019-05-09T17:56:48.454Z,99344.53
2019-05-09T17:59:18.430Z,99348.45
2019-05-09T18:01:48.457Z,99354.63
2019-05-09T18:04:18.087Z,99373.84
2019-05-09T18:06:48.948Z,99369.23
2019-05-09T18:09:19.065Z,99385.34
2019-05-09T18:11:48.588Z,99389.81
2019-05-09T18:14:18.498Z,99381.64
2019-05-09T18:16:48.069Z,99388.23
2019-05-09T18:19:17.946Z,99393.81
2019-05-09T18:21:50.954Z,99399.02
2019-05-09T18:24:18.588Z,99409.84
2019-05-09T18:26:47.636Z,99406.73
2019-05-09T18:29:18.148Z,99408.47
2019-05-09T18:32:04.319Z,99407.96
2019-05-09T18:34:33.663Z,99413.59
2019-05-09T18:37:02.860Z,99415.52
2019-05-09T18:39:32.154Z,99418.17
2019-05-09T18:42:03.147Z,99421.11
2019-05-09T18:44:32.211Z,99425.46
2019-05-09T18:47:01.462Z,99427.28
2019-05-09T18:49:30.787Z,99430.09
2019-05-09T18:52:03.851Z,99430.19
2019-05-09T18:54:31.132Z,99459.70
2019-05-09T18:57:00.166Z,99502.01
2019-05-09T18:59:29.323Z,99506.52
2019-05-09T19:01:58.461Z,99523.17
2019-05-09T19:04:27.494Z,99530.55
2019-05-09T19:06:57.061Z,99534.25
2019-05-09T19:09:26.187Z,99533.56
2019-05-09T19:11:55.404Z,99537.94
2019-05-09T19:14:24.959Z,99544.28
2019-05-09T19:17:01.606Z,99539.48
2019-05-09T19:19:44.541Z,99559.20
2019-05-09T19:22:21.978Z,99554.22
2019-05-09T19:24:44.840Z,99568.25
2019-05-09T19:27:14.459Z,99567.61
2019-05-09T19:29:44.208Z,99568.98
2019-05-09T19:32:13.490Z,99573.03
2019-05-09T19:34:42.970Z,99578.86
2019-05-09T19:37:12.023Z,99580.19
2019-05-09T19:39:41.245Z,99582.32
2019-05-09T19:42:10.686Z,99588.83
2019-05-09T19:44:39.844Z,99594.14
2019-05-09T19:47:09.027Z,99594.63
2019-05-09T19:49:38.122Z,99597.84
2019-05-09T19:52:07.170Z,99606.45
2019-05-09T19:54:36.237Z,99608.09
2019-05-09T19:57:05.302Z,99617.03
2019-05-09T19:59:34.364Z,99626.84
2019-05-09T20:02:03.639Z,99625.38
2019-05-09T20:04:32.925Z,99632.72
2019-05-09T20:07:02.233Z,99631.50
2019-05-09T20:09:33.164Z,99634.80
2019-05-09T20:12:19.741Z,99634.45
2019-05-09T20:14:50.707Z,99641.44
2019-05-09T20:17:20.105Z,99649.41
2019-05-09T20:19:49.621Z,99651.08
2019-05-09T20:22:18.676Z,99648.20
2019-05-09T20:24:48.229Z,99654.20
2019-05-09T20:27:17.441Z,99650.86
2019-05-09T20:29:46.582Z,99656.98
2019-05-09T20:32:16.028Z,99666.82
2019-05-09T20:34:45.090Z,99662.16
2019-05-09T20:37:14.125Z,99671.10
2019-05-09T20:39:43.450Z,99674.30
2019-05-09T20:42:12.693Z,99675.48
2019-05-09T20:44:42.222Z,99690.75
2019-05-09T20:47:11.508Z,99691.93
2019-05-09T20:49:40.756Z,99694.25
2019-05-09T20:52:10.170Z,99699.20
2019-05-09T20:54:39.605Z,99698.87
2019-05-09T20:57:08.959Z,99700.88
2019-05-09T20:59:38.363Z,99704.36
2019-05-09T21:02:07.589Z,99706.17
2019-05-09T21:04:37.205Z,99707.66
2019-05-09T21:07:06.503Z,99710.49
2019-05-09T21:09:35.740Z,99711.52
2019-05-09T21:12:05.007Z,99720.95
2019-05-09T21:14:34.605Z,99717.98
2019-05-09T21:17:03.808Z,99717.13
2019-05-09T21:19:33.422Z,99725.75
2019-05-09T21:22:02.662Z,99718.78
2019-05-09T21:24:31.921Z,99724.77
2019-05-09T21:27:01.188Z,99727.06
2019-05-09T21:29:30.799Z,99726.91
2019-05-09T21:32:00.043Z,99726.59
2019-05-09T21:34:29.237Z,99730.56
2019-05-09T21:36:58.485Z,99737.52
2019-05-09T21:39:27.548Z,99738.02
2019-05-09T21:41:57.011Z,99742.84
2019-05-09T21:44:26.069Z,99749.45
2019-05-09T21:46:55.354Z,99746.30
2019-05-09T21:49:24.473Z,99747.97
2019-05-09T21:51:53.525Z,99747.98
2019-05-09T21:54:22.531Z,99752.28
2019-05-09T21:56:51.597Z,99752.61
2019-05-09T21:59:20.620Z,99764.56
2019-05-09T22:01:49.885Z,99769.70
2019-05-09T22:04:18.910Z,99766.72
2019-05-09T22:06:48.048Z,99766.88
2019-05-09T22:09:17.072Z,99765.37
2019-05-09T22:11:46.114Z,99762.06
2019-05-09T22:14:15.326Z,99760.75
2019-05-09T22:16:44.522Z,99763.08
2019-05-09T22:19:13.563Z,99768.87
2019-05-09T22:21:42.577Z,99775.67
2019-05-09T22:24:11.688Z,99775.84
2019-05-09T22:26:40.821Z,99782.14
2019-05-09T22:29:09.917Z,99784.10
2019-05-09T22:31:39.051Z,99779.30
2019-05-09T22:34:08.473Z,99780.61
2019-05-09T22:36:37.587Z,99787.91
2019-05-09T22:39:08.244Z,99792.55
2019-05-09T22:41:37.263Z,99793.06
2019-05-09T22:44:06.377Z,99801.83
2019-05-09T22:46:35.385Z,99805.50
2019-05-09T22:49:04.804Z,99804.67
2019-05-09T22:51:33.898Z,99805.00
2019-05-09T22:54:12.130Z,99808.47
2019-05-09T22:56:33.728Z,99800.84
2019-05-09T22:59:03.040Z,99806.83
2019-05-09T23:01:32.065Z,99804.00
2019-05-09T23:04:01.278Z,99809.95
2019-05-09T23:06:30.331Z,99810.05
2019-05-09T23:09:00.261Z,99817.34
2019-05-09T23:11:29.376Z,99816.66
2019-05-09T23:13:58.434Z,99820.30
2019-05-09T23:16:29.172Z,99826.78
2019-05-09T23:18:58.220Z,99821.95
2019-05-09T23:21:29.026Z,99823.64
2019-05-09T23:23:59.781Z,99832.57
2019-05-09T23:26:28.824Z,99831.75
2019-05-09T23:28:57.874Z,99835.58
2019-05-09T23:31:28.538Z,99836.91
2019-05-09T23:33:57.963Z,99840.02
2019-05-09T23:36:26.971Z,99841.70
2019-05-09T23:39:15.404Z,99838.02
2019-05-09T23:41:44.431Z,99833.87
2019-05-09T23:44:13.491Z,99833.39
2019-05-09T23:46:42.503Z,99838.36
2019-05-09T23:49:11.622Z,99841.31
2019-05-09T23:51:45.269Z,99844.45
2019-05-09T23:54:48.332Z,99841.62
2019-05-09T23:57:29.806Z,99838.45
